createdAt,value
2023-05-13T00:00:06.305Z,93.60
2023-05-13T00:05:08.375Z,93.60
2023-05-13T00:10:10.050Z,93.70
2023-05-13T00:15:11.498Z,93.50
2023-05-13T00:20:13.101Z,93.80
2023-05-13T00:25:17.199Z,93.90
2023-05-13T00:30:20.458Z,94.00
2023-05-13T00:35:22.383Z,94.20
2023-05-13T00:40:24.192Z,94.20
2023-05-13T00:45:26.096Z,94.30
2023-05-13T00:50:27.725Z,94.60
2023-05-13T00:55:29.390Z,94.60
2023-05-13T01:00:31.090Z,94.80
2023-05-13T01:05:32.742Z,94.70
2023-05-13T01:10:34.405Z,94.70
2023-05-13T01:15:36.045Z,94.90
2023-05-13T01:20:37.482Z,95.20
2023-05-13T01:25:39.069Z,95.50
2023-05-13T01:30:40.735Z,95.70
2023-05-13T01:35:42.162Z,96.00
2023-05-13T01:40:43.802Z,96.10
2023-05-13T01:45:46.685Z,96.20
2023-05-13T01:50:48.955Z,96.70
2023-05-13T01:55:51.549Z,97.00
2023-05-13T02:00:53.218Z,97.30
2023-05-13T02:05:54.862Z,97.30
2023-05-13T02:10:56.561Z,97.40
2023-05-13T02:15:58.348Z,97.70
2023-05-13T02:21:01.735Z,97.70
2023-05-13T02:26:03.443Z,98.40
2023-05-13T02:31:05.099Z,98.50
2023-05-13T02:36:07.699Z,98.60
2023-05-13T02:41:09.746Z,98.40
2023-05-13T02:46:11.913Z,98.40
2023-05-13T02:51:13.640Z,98.80
2023-05-13T02:56:16.022Z,99.70
2023-05-13T03:01:18.082Z,99.90
2023-05-13T03:06:20.198Z,99.40
2023-05-13T03:11:21.842Z,99.80
2023-05-13T03:16:23.608Z,99.90
2023-05-13T03:21:25.830Z,99.90
2023-05-13T03:26:27.459Z,99.90
2023-05-13T03:31:29.567Z,99.90
2023-05-13T03:36:31.088Z,99.90
2023-05-13T03:41:32.513Z,99.90
2023-05-13T03:46:34.099Z,99.90
2023-05-13T03:51:35.816Z,99.90
2023-05-13T03:56:37.487Z,99.90
2023-05-13T04:01:39.030Z,99.90
2023-05-13T04:06:40.819Z,99.90
2023-05-13T04:11:42.273Z,99.90
2023-05-13T04:16:43.814Z,99.90
2023-05-13T04:21:45.566Z,99.90
2023-05-13T04:26:47.327Z,99.90
2023-05-13T04:31:48.989Z,99.90
2023-05-13T04:36:52.516Z,99.90
2023-05-13T04:41:54.048Z,99.90
2023-05-13T04:46:55.742Z,99.90
2023-05-13T04:51:57.394Z,99.90
2023-05-13T04:56:59.725Z,99.90
2023-05-13T05:02:04.220Z,99.90
2023-05-13T05:07:05.895Z,99.40
2023-05-13T05:12:07.354Z,97.70
2023-05-13T05:17:08.906Z,95.90
2023-05-13T05:22:10.531Z,94.70
2023-05-13T05:27:12.259Z,93.70
2023-05-13T05:32:13.891Z,93.00
2023-05-13T05:37:15.495Z,92.50
2023-05-13T05:42:17.512Z,92.00
2023-05-13T05:47:19.185Z,91.10
2023-05-13T05:52:20.852Z,90.80
2023-05-13T05:57:22.334Z,90.70
2023-05-13T06:02:23.873Z,90.10
2023-05-13T06:07:25.545Z,88.60
2023-05-13T06:12:27.217Z,88.60
2023-05-13T06:17:28.907Z,87.80
2023-05-13T06:22:30.405Z,88.20
2023-05-13T06:27:31.922Z,87.00
2023-05-13T06:32:33.657Z,86.80
2023-05-13T06:37:35.251Z,85.50
2023-05-13T06:42:37.241Z,85.80
2023-05-13T06:47:38.847Z,84.10
2023-05-13T06:52:41.970Z,84.90
2023-05-13T06:57:44.542Z,84.50
2023-05-13T07:02:46.133Z,82.40
2023-05-13T07:07:47.777Z,82.20
2023-05-13T07:12:49.739Z,80.90
2023-05-13T07:17:51.430Z,80.50
2023-05-13T07:22:53.114Z,80.20
2023-05-13T07:27:55.000Z,80.30
2023-05-13T07:32:56.764Z,80.30
2023-05-13T07:37:58.222Z,79.60
2023-05-13T07:43:00.272Z,80.10
2023-05-13T07:48:02.284Z,80.20
2023-05-13T07:53:04.347Z,79.80
2023-05-13T07:58:05.814Z,79.20
2023-05-13T08:03:07.561Z,79.50
2023-05-13T08:08:09.364Z,79.40
2023-05-13T08:13:10.955Z,79.40
2023-05-13T08:18:12.695Z,79.40
2023-05-13T08:23:14.349Z,79.10
2023-05-13T08:28:15.910Z,78.60
2023-05-13T08:33:17.403Z,79.00
2023-05-13T08:38:19.058Z,80.40
2023-05-13T08:43:20.724Z,78.50
2023-05-13T08:48:22.394Z,78.40
2023-05-13T08:53:24.068Z,77.80
2023-05-13T08:58:46.536Z,78.30
2023-05-13T09:03:59.069Z,78.80
2023-05-13T09:09:21.320Z,79.20
2023-05-13T09:14:23.621Z,78.70
2023-05-13T09:19:25.225Z,78.10
2023-05-13T09:24:26.969Z,77.70
2023-05-13T09:29:28.911Z,76.40
2023-05-13T09:34:31.031Z,76.70
2023-05-13T09:39:33.770Z,75.90
2023-05-13T09:44:35.796Z,76.00
2023-05-13T09:49:37.278Z,75.50
2023-05-13T09:54:39.138Z,73.80
2023-05-13T09:59:40.827Z,75.90
2023-05-13T10:04:42.497Z,78.20
2023-05-13T10:09:44.193Z,78.10
2023-05-13T10:14:45.875Z,79.50
2023-05-13T10:19:47.334Z,78.80
2023-05-13T10:24:48.819Z,78.80
2023-05-13T10:29:50.539Z,76.60
2023-05-13T10:34:52.257Z,75.00
2023-05-13T10:39:53.682Z,72.90
2023-05-13T10:44:55.212Z,74.50
2023-05-13T10:49:56.917Z,72.30
2023-05-13T10:54:58.554Z,72.30
2023-05-13T11:00:01.252Z,73.50
2023-05-13T11:05:02.843Z,77.20
2023-05-13T11:10:05.418Z,76.00
2023-05-13T11:15:07.079Z,77.20
2023-05-13T11:20:27.192Z,75.80
2023-05-13T11:25:28.858Z,71.80
2023-05-13T11:30:30.527Z,70.30
2023-05-13T11:35:32.065Z,69.70
2023-05-13T11:40:33.579Z,71.10
2023-05-13T11:45:35.201Z,70.50
2023-05-13T11:50:36.930Z,70.60
2023-05-13T11:55:38.586Z,72.30
2023-05-13T12:00:40.240Z,72.70
2023-05-13T12:05:42.057Z,72.30
2023-05-13T12:10:43.617Z,72.70
2023-05-13T12:15:45.283Z,72.80
2023-05-13T12:20:47.038Z,70.20
2023-05-13T12:25:48.608Z,70.90
2023-05-13T12:30:50.279Z,69.80
2023-05-13T12:35:51.816Z,70.70
2023-05-13T12:40:53.332Z,70.80
2023-05-13T12:45:54.850Z,71.60
2023-05-13T12:51:02.005Z,71.60
2023-05-13T12:56:03.912Z,70.90
2023-05-13T13:01:05.597Z,70.00
2023-05-13T13:06:07.213Z,71.20
2023-05-13T13:11:08.883Z,71.50
2023-05-13T13:16:10.595Z,72.60
2023-05-13T13:21:12.214Z,70.70
2023-05-13T13:26:13.884Z,68.80
2023-05-13T13:31:15.388Z,70.30
2023-05-13T13:36:16.934Z,71.10
2023-05-13T13:41:18.617Z,74.20
2023-05-13T13:46:20.200Z,75.00
2023-05-13T13:51:21.942Z,75.60
2023-05-13T13:56:23.384Z,77.30
2023-05-13T14:01:24.961Z,77.00
2023-05-13T14:06:26.636Z,79.40
2023-05-13T14:11:28.090Z,78.90
2023-05-13T14:16:29.612Z,79.50
2023-05-13T14:21:31.339Z,77.50
2023-05-13T14:26:33.012Z,77.60
2023-05-13T14:31:34.742Z,77.60
2023-05-13T14:36:36.918Z,76.80
2023-05-13T14:41:38.964Z,79.20
2023-05-13T14:46:40.677Z,78.70
2023-05-13T14:51:42.220Z,78.30
2023-05-13T14:56:43.963Z,79.80
2023-05-13T15:01:45.533Z,79.40
2023-05-13T15:06:47.329Z,80.10
2023-05-13T15:11:49.372Z,79.20
2023-05-13T15:16:51.024Z,74.50
2023-05-13T15:21:52.513Z,70.80
2023-05-13T15:26:54.008Z,70.30
2023-05-13T15:31:56.573Z,71.60
2023-05-13T15:36:58.261Z,71.20
2023-05-13T15:41:59.694Z,70.60
2023-05-13T15:47:01.226Z,70.70
2023-05-13T15:52:04.423Z,70.70
2023-05-13T15:57:08.325Z,71.50
2023-05-13T16:02:10.237Z,72.50
2023-05-13T16:07:12.013Z,71.90
2023-05-13T16:12:13.651Z,73.00
2023-05-13T16:17:15.333Z,73.90
2023-05-13T16:22:17.534Z,74.20
2023-05-13T16:27:21.773Z,74.20
2023-05-13T16:32:23.213Z,74.10
2023-05-13T16:37:24.762Z,74.70
2023-05-13T16:42:26.758Z,74.40
2023-05-13T16:47:28.462Z,75.10
2023-05-13T16:52:30.090Z,76.00
2023-05-13T16:57:31.538Z,76.10
2023-05-13T17:02:33.055Z,76.10
2023-05-13T17:07:34.783Z,76.30
2023-05-13T17:12:36.525Z,76.80
2023-05-13T17:17:38.194Z,76.20
2023-05-13T17:22:39.701Z,76.90
2023-05-13T17:27:41.156Z,77.00
2023-05-13T17:32:42.674Z,76.80
2023-05-13T17:37:44.127Z,76.70
2023-05-13T17:42:45.724Z,76.70
2023-05-13T17:47:47.434Z,77.40
2023-05-13T17:52:49.743Z,77.90
2023-05-13T17:57:51.484Z,78.30
2023-05-13T18:02:53.252Z,78.70
2023-05-13T18:07:54.836Z,79.20
2023-05-13T18:12:56.536Z,80.50
2023-05-13T18:17:58.142Z,80.80
2023-05-13T18:22:59.879Z,81.40
2023-05-13T18:28:01.367Z,81.90
2023-05-13T18:33:03.070Z,83.70
2023-05-13T18:38:04.575Z,84.80
2023-05-13T18:43:06.567Z,85.20
2023-05-13T18:48:08.326Z,85.50
2023-05-13T18:53:09.879Z,87.70
2023-05-13T18:58:11.554Z,88.30
2023-05-13T19:03:13.516Z,89.20
2023-05-13T19:08:15.250Z,89.80
2023-05-13T19:13:16.871Z,90.60
2023-05-13T19:18:18.688Z,91.40
2023-05-13T19:23:20.229Z,92.00
2023-05-13T19:28:21.895Z,92.80
2023-05-13T19:33:23.579Z,92.20
2023-05-13T19:38:25.267Z,91.60
2023-05-13T19:43:26.971Z,92.70
2023-05-13T19:48:29.826Z,92.30
2023-05-13T19:53:31.814Z,92.60
2023-05-13T19:58:33.273Z,93.10
2023-05-13T20:03:34.907Z,93.40
2023-05-13T20:08:36.703Z,93.20
2023-05-13T20:13:38.197Z,93.90
2023-05-13T20:18:39.972Z,94.00
2023-05-13T20:23:41.564Z,94.30
2023-05-13T20:28:43.037Z,93.40
2023-05-13T20:33:44.542Z,93.80
2023-05-13T20:38:46.849Z,95.00
2023-05-13T20:43:48.492Z,94.70
2023-05-13T20:48:49.949Z,95.30
2023-05-13T20:53:51.438Z,96.10
2023-05-13T20:58:52.918Z,96.70
2023-05-13T21:03:54.620Z,96.50
2023-05-13T21:08:56.088Z,96.70
2023-05-13T21:13:57.650Z,96.70
2023-05-13T21:18:59.294Z,97.00
2023-05-13T21:24:00.969Z,96.70
2023-05-13T21:29:02.652Z,96.90
2023-05-13T21:34:07.396Z,98.10
2023-05-13T21:39:09.014Z,98.10
2023-05-13T21:44:10.693Z,98.60
2023-05-13T21:49:12.335Z,98.70
2023-05-13T21:54:14.061Z,99.30
2023-05-13T21:59:15.709Z,99.40
2023-05-13T22:04:17.448Z,99.30
2023-05-13T22:09:19.101Z,99.90
2023-05-13T22:14:20.569Z,99.90
2023-05-13T22:19:24.951Z,99.90
2023-05-13T22:24:26.461Z,99.90
2023-05-13T22:29:28.208Z,99.90
2023-05-13T22:34:29.878Z,99.90
2023-05-13T22:39:31.606Z,99.90
2023-05-13T22:44:33.227Z,99.90
2023-05-13T22:49:34.886Z,99.90
2023-05-13T22:54:36.558Z,99.90
2023-05-13T22:59:38.254Z,99.90
2023-05-13T23:04:39.940Z,99.90
2023-05-13T23:09:41.646Z,99.90
2023-05-13T23:14:46.048Z,99.90
2023-05-13T23:19:47.708Z,99.90
2023-05-13T23:24:49.346Z,99.90
2023-05-13T23:29:50.788Z,99.90
2023-05-13T23:34:52.769Z,99.90
2023-05-13T23:39:54.352Z,99.90
2023-05-13T23:44:55.932Z,99.90
2023-05-13T23:49:57.404Z,99.90
2023-05-13T23:54:59.080Z,99.90
